createdAt,value
2022-11-15T00:01:26.848Z,13.12
2022-11-15T00:02:26.887Z,13.09
2022-11-15T00:04:30.714Z,13.11
2022-11-15T00:05:30.670Z,13.12
2022-11-15T00:07:54.698Z,13.13
2022-11-15T00:08:34.532Z,13.08
2022-11-15T00:10:38.432Z,13.22
2022-11-15T00:11:38.385Z,13.11
2022-11-15T00:13:42.289Z,13.23
2022-11-15T00:14:42.248Z,13.16
2022-11-15T00:16:46.143Z,13.22
2022-11-15T00:17:46.097Z,13.19
2022-11-15T00:19:49.991Z,13.23
2022-11-15T00:20:49.954Z,13.23
2022-11-15T00:22:42.810Z,13.28
2022-11-15T00:23:42.750Z,13.31
2022-11-15T00:25:46.649Z,13.38
2022-11-15T00:26:46.605Z,13.42
2022-11-15T00:28:50.520Z,13.39
2022-11-15T00:29:50.470Z,13.37
2022-11-15T00:31:54.359Z,13.44
2022-11-15T00:32:54.322Z,13.44
2022-11-15T00:34:58.233Z,13.47
2022-11-15T00:35:58.178Z,13.46
2022-11-15T00:38:02.085Z,13.50
2022-11-15T00:39:02.035Z,13.44
2022-11-15T00:41:09.290Z,13.49
2022-11-15T00:42:05.897Z,13.56
2022-11-15T00:44:09.800Z,13.53
2022-11-15T00:45:09.758Z,13.53
2022-11-15T00:47:13.673Z,13.57
2022-11-15T00:48:13.614Z,13.50
2022-11-15T00:50:17.534Z,13.63
2022-11-15T00:51:17.469Z,13.60
2022-11-15T00:53:21.384Z,13.63
2022-11-15T00:54:21.336Z,13.63
2022-11-15T00:56:25.244Z,13.63
2022-11-15T00:57:25.197Z,13.62
2022-11-15T00:59:29.111Z,13.60
2022-11-15T01:00:29.110Z,13.62
2022-11-15T01:02:21.879Z,13.68
2022-11-15T01:03:21.842Z,13.63
2022-11-15T01:05:25.752Z,13.63
2022-11-15T01:06:25.699Z,13.67
2022-11-15T01:08:29.598Z,13.63
2022-11-15T01:09:29.559Z,13.62
2022-11-15T01:11:33.470Z,13.62
2022-11-15T01:12:33.418Z,13.60
2022-11-15T01:14:37.310Z,13.65
2022-11-15T01:15:37.279Z,13.62
2022-11-15T01:17:41.178Z,13.68
2022-11-15T01:18:41.135Z,13.63
2022-11-15T01:20:45.039Z,13.60
2022-11-15T01:21:44.987Z,13.67
2022-11-15T01:23:48.892Z,13.54
2022-11-15T01:24:48.845Z,13.65
2022-11-15T01:26:52.759Z,13.65
2022-11-15T01:27:52.705Z,13.60
2022-11-15T01:29:56.598Z,13.78
2022-11-15T01:30:56.568Z,13.67
2022-11-15T01:32:49.403Z,13.70
2022-11-15T01:33:49.353Z,13.67
2022-11-15T01:35:53.262Z,13.78
2022-11-15T01:36:53.208Z,13.75
2022-11-15T01:38:57.117Z,13.78
2022-11-15T01:39:57.070Z,13.78
2022-11-15T01:41:49.914Z,13.77
2022-11-15T01:42:49.860Z,13.77
2022-11-15T01:44:53.777Z,13.78
2022-11-15T01:45:53.720Z,13.79
2022-11-15T01:47:57.642Z,13.78
2022-11-15T01:48:57.587Z,13.77
2022-11-15T01:51:01.480Z,13.75
2022-11-15T01:52:01.441Z,13.72
2022-11-15T01:54:05.349Z,13.70
2022-11-15T01:55:05.301Z,13.77
2022-11-15T01:57:09.201Z,13.86
2022-11-15T01:58:09.164Z,13.90
2022-11-15T02:00:13.086Z,13.74
2022-11-15T02:01:13.093Z,13.72
2022-11-15T02:03:16.929Z,13.77
2022-11-15T02:04:16.884Z,13.77
2022-11-15T02:06:20.799Z,13.79
2022-11-15T02:07:20.836Z,13.71
2022-11-15T02:09:24.639Z,13.75
2022-11-15T02:10:24.605Z,13.78
2022-11-15T02:12:17.439Z,13.78
2022-11-15T02:13:17.389Z,13.79
2022-11-15T02:15:21.298Z,13.71
2022-11-15T02:16:21.247Z,13.81
2022-11-15T02:18:25.158Z,13.78
2022-11-15T02:19:25.105Z,13.78
2022-11-15T02:21:29.020Z,13.75
2022-11-15T02:22:28.965Z,13.77
2022-11-15T02:24:32.863Z,13.79
2022-11-15T02:25:32.827Z,13.79
2022-11-15T02:27:36.739Z,13.70
2022-11-15T02:28:36.682Z,13.79
2022-11-15T02:30:40.582Z,13.78
2022-11-15T02:31:40.544Z,13.77
2022-11-15T02:33:44.471Z,13.74
2022-11-15T02:34:44.415Z,13.77
2022-11-15T02:36:48.307Z,13.75
2022-11-15T02:37:48.267Z,13.74
2022-11-15T02:39:52.179Z,13.77
2022-11-15T02:40:52.130Z,13.78
2022-11-15T02:42:44.954Z,13.77
2022-11-15T02:43:44.920Z,13.71
2022-11-15T02:45:48.830Z,13.75
2022-11-15T02:46:48.774Z,13.72
2022-11-15T02:48:52.672Z,13.87
2022-11-15T02:49:52.632Z,13.81
2022-11-15T02:51:56.544Z,13.87
2022-11-15T02:52:56.503Z,13.85
2022-11-15T02:55:00.389Z,13.79
2022-11-15T02:56:00.353Z,13.79
2022-11-15T02:58:04.261Z,13.96
2022-11-15T02:59:04.210Z,13.96
2022-11-15T03:01:08.164Z,13.99
2022-11-15T03:02:08.067Z,13.90
2022-11-15T03:04:12.486Z,13.95
2022-11-15T03:05:12.427Z,13.90
2022-11-15T03:07:16.359Z,13.95
2022-11-15T03:08:16.285Z,13.95
2022-11-15T03:10:20.215Z,14.03
2022-11-15T03:11:20.141Z,13.90
2022-11-15T03:13:24.048Z,14.03
2022-11-15T03:14:24.003Z,14.00
2022-11-15T03:16:27.923Z,13.93
2022-11-15T03:17:27.866Z,14.00
2022-11-15T03:19:31.772Z,14.00
2022-11-15T03:20:31.727Z,14.05
2022-11-15T03:22:24.560Z,14.03
2022-11-15T03:23:24.507Z,14.04
2022-11-15T03:25:28.408Z,14.00
2022-11-15T03:26:28.369Z,13.97
2022-11-15T03:28:32.280Z,14.04
2022-11-15T03:29:32.230Z,14.03
2022-11-15T03:31:36.126Z,14.04
2022-11-15T03:32:36.092Z,14.07
2022-11-15T03:34:40.003Z,14.08
2022-11-15T03:35:39.955Z,14.07
2022-11-15T03:37:43.868Z,14.00
2022-11-15T03:38:43.851Z,14.03
2022-11-15T03:40:47.710Z,14.00
2022-11-15T03:41:47.683Z,14.04
2022-11-15T03:43:51.583Z,14.04
2022-11-15T03:44:51.529Z,14.05
2022-11-15T03:46:55.429Z,14.08
2022-11-15T03:47:55.390Z,14.00
2022-11-15T03:49:59.308Z,14.05
2022-11-15T03:50:59.255Z,14.17
2022-11-15T03:53:03.162Z,14.11
2022-11-15T03:54:03.112Z,14.10
2022-11-15T03:56:07.011Z,14.11
2022-11-15T03:57:06.971Z,14.11
2022-11-15T03:59:10.882Z,14.12
2022-11-15T04:00:10.834Z,14.10
2022-11-15T04:02:03.661Z,14.08
2022-11-15T04:03:03.629Z,14.11
2022-11-15T04:05:07.554Z,14.11
2022-11-15T04:06:07.500Z,14.12
2022-11-15T04:08:11.384Z,14.10
2022-11-15T04:09:11.344Z,14.10
2022-11-15T04:11:15.249Z,14.03
2022-11-15T04:12:15.200Z,14.00
2022-11-15T04:14:19.101Z,14.10
2022-11-15T04:15:19.059Z,14.03
2022-11-15T04:17:22.977Z,14.00
2022-11-15T04:18:22.925Z,14.04
2022-11-15T04:20:26.839Z,14.04
2022-11-15T04:21:26.789Z,14.03
2022-11-15T04:23:31.270Z,14.03
2022-11-15T04:24:30.645Z,14.04
2022-11-15T04:26:34.551Z,14.07
2022-11-15T04:27:34.507Z,14.10
2022-11-15T04:29:38.413Z,14.08
2022-11-15T04:30:38.362Z,14.12
2022-11-15T04:32:31.192Z,14.12
2022-11-15T04:33:31.445Z,14.05
2022-11-15T04:35:35.066Z,14.12
2022-11-15T04:36:35.014Z,14.12
2022-11-15T04:38:38.904Z,14.07
2022-11-15T04:39:38.866Z,14.12
2022-11-15T04:41:42.771Z,14.12
2022-11-15T04:42:42.739Z,14.20
2022-11-15T04:44:46.630Z,14.12
2022-11-15T04:45:46.585Z,14.11
2022-11-15T04:47:50.503Z,14.15
2022-11-15T04:48:54.151Z,14.20
2022-11-15T04:50:54.355Z,14.18
2022-11-15T04:51:54.316Z,14.07
2022-11-15T04:53:58.228Z,14.22
2022-11-15T04:54:58.172Z,14.15
2022-11-15T04:57:02.071Z,14.15
2022-11-15T04:58:02.039Z,14.15
2022-11-15T05:00:05.956Z,14.18
2022-11-15T05:01:05.976Z,14.15
2022-11-15T05:03:09.817Z,14.14
2022-11-15T05:04:09.772Z,14.15
2022-11-15T05:06:14.912Z,14.17
2022-11-15T05:07:13.675Z,14.10
2022-11-15T05:09:17.522Z,14.12
2022-11-15T05:10:17.478Z,14.11
2022-11-15T05:12:10.314Z,14.15
2022-11-15T05:13:10.267Z,14.12
2022-11-15T05:15:14.171Z,14.04
2022-11-15T05:16:14.124Z,14.07
2022-11-15T05:18:23.148Z,14.05
2022-11-15T05:19:17.992Z,13.92
2022-11-15T05:21:21.892Z,13.93
2022-11-15T05:22:21.841Z,13.95
2022-11-15T05:24:25.762Z,13.93
2022-11-15T05:25:25.720Z,13.93
2022-11-15T05:27:29.604Z,13.78
2022-11-15T05:28:29.567Z,13.78
2022-11-15T05:30:33.480Z,13.79
2022-11-15T05:31:33.430Z,13.78
2022-11-15T05:33:37.339Z,13.72
2022-11-15T05:34:37.297Z,13.83
2022-11-15T05:36:41.218Z,13.68
2022-11-15T05:37:41.164Z,13.63
2022-11-15T05:39:45.073Z,13.62
2022-11-15T05:40:45.035Z,13.54
2022-11-15T05:42:37.893Z,13.56
2022-11-15T05:43:37.825Z,13.50
2022-11-15T05:45:41.714Z,13.47
2022-11-15T05:46:41.678Z,13.46
2022-11-15T05:48:45.588Z,13.39
2022-11-15T05:49:45.537Z,13.39
2022-11-15T05:51:49.429Z,13.31
2022-11-15T05:52:49.395Z,13.38
2022-11-15T05:54:53.301Z,13.28
2022-11-15T05:55:53.277Z,13.23
2022-11-15T05:57:57.149Z,13.23
2022-11-15T05:58:59.740Z,13.09
2022-11-15T06:01:01.080Z,13.18
2022-11-15T06:02:01.062Z,13.05
2022-11-15T06:04:04.917Z,13.09
2022-11-15T06:05:04.878Z,13.03
2022-11-15T06:07:08.874Z,12.93
2022-11-15T06:08:08.745Z,12.87
2022-11-15T06:10:12.645Z,12.93
2022-11-15T06:11:12.598Z,12.97
2022-11-15T06:13:16.527Z,12.79
2022-11-15T06:14:16.455Z,12.82
2022-11-15T06:16:20.357Z,12.73
2022-11-15T06:17:20.314Z,12.62
2022-11-15T06:19:24.242Z,12.62
2022-11-15T06:20:24.173Z,12.68
2022-11-15T06:22:17.003Z,12.58
2022-11-15T06:23:16.964Z,12.61
2022-11-15T06:25:20.883Z,12.62
2022-11-15T06:26:20.820Z,12.68
2022-11-15T06:28:24.715Z,12.64
2022-11-15T06:29:24.708Z,12.64
2022-11-15T06:31:28.579Z,12.58
2022-11-15T06:32:28.534Z,12.61
2022-11-15T06:34:32.433Z,12.53
2022-11-15T06:35:32.392Z,12.45
2022-11-15T06:37:36.303Z,12.55
2022-11-15T06:38:36.246Z,12.50
2022-11-15T06:40:40.156Z,12.49
2022-11-15T06:41:40.104Z,12.40
2022-11-15T06:43:44.016Z,12.42
2022-11-15T06:44:43.968Z,12.37
2022-11-15T06:46:47.857Z,12.42
2022-11-15T06:47:47.815Z,12.39
2022-11-15T06:49:51.731Z,12.36
2022-11-15T06:50:51.675Z,12.37
2022-11-15T06:52:44.509Z,12.31
2022-11-15T06:53:44.473Z,12.28
2022-11-15T06:55:53.400Z,12.25
2022-11-15T06:56:48.373Z,12.31
2022-11-15T06:58:52.356Z,12.22
2022-11-15T06:59:52.302Z,12.25
2022-11-15T07:01:56.196Z,12.27
2022-11-15T07:02:56.155Z,12.22
2022-11-15T07:05:00.064Z,12.18
2022-11-15T07:06:05.779Z,12.24
2022-11-15T07:08:03.908Z,12.20
2022-11-15T07:09:03.867Z,12.25
2022-11-15T07:11:07.782Z,12.18
2022-11-15T07:12:08.142Z,12.20
2022-11-15T07:14:14.933Z,12.25
2022-11-15T07:15:11.587Z,12.27
2022-11-15T07:17:15.484Z,12.27
2022-11-15T07:18:15.442Z,12.28
2022-11-15T07:20:19.359Z,12.25
2022-11-15T07:21:23.485Z,12.29
2022-11-15T07:23:23.247Z,12.29
2022-11-15T07:24:23.167Z,12.25
2022-11-15T07:26:27.090Z,12.27
2022-11-15T07:27:27.028Z,12.24
2022-11-15T07:29:30.922Z,12.20
2022-11-15T07:30:30.885Z,12.22
2022-11-15T07:32:24.588Z,12.18
2022-11-15T07:33:23.991Z,12.22
2022-11-15T07:35:27.894Z,12.24
2022-11-15T07:36:27.856Z,12.15
2022-11-15T07:38:31.773Z,12.20
2022-11-15T07:39:31.720Z,12.09
2022-11-15T07:41:35.625Z,12.21
2022-11-15T07:42:35.572Z,12.12
2022-11-15T07:44:39.477Z,12.18
2022-11-15T07:45:39.436Z,12.15
2022-11-15T07:47:43.347Z,12.17
2022-11-15T07:48:45.140Z,12.20
2022-11-15T07:50:47.186Z,12.24
2022-11-15T07:51:47.149Z,12.15
2022-11-15T07:53:51.058Z,12.18
2022-11-15T07:54:51.010Z,12.13
2022-11-15T07:56:54.911Z,12.17
2022-11-15T07:57:54.868Z,12.20
2022-11-15T07:59:58.784Z,12.21
2022-11-15T08:00:58.805Z,12.22
2022-11-15T08:02:51.703Z,12.24
2022-11-15T08:03:51.562Z,12.20
2022-11-15T08:05:55.458Z,12.29
2022-11-15T08:06:55.429Z,12.25
2022-11-15T08:08:59.334Z,12.25
2022-11-15T08:09:59.261Z,12.28
2022-11-15T08:12:03.174Z,12.32
2022-11-15T08:13:03.217Z,12.37
2022-11-15T08:15:07.026Z,12.39
2022-11-15T08:16:06.974Z,12.37
2022-11-15T08:18:10.881Z,12.40
2022-11-15T08:19:10.828Z,12.37
2022-11-15T08:21:18.300Z,12.39
2022-11-15T08:22:14.684Z,12.50
2022-11-15T08:24:18.611Z,12.53
2022-11-15T08:25:18.556Z,12.50
2022-11-15T08:27:22.615Z,12.49
2022-11-15T08:28:22.408Z,12.61
2022-11-15T08:30:26.384Z,12.58
2022-11-15T08:31:26.263Z,12.62
2022-11-15T08:33:30.536Z,12.64
2022-11-15T08:34:30.126Z,12.58
2022-11-15T08:36:43.005Z,12.64
2022-11-15T08:37:33.986Z,12.57
2022-11-15T08:39:37.900Z,12.64
2022-11-15T08:40:37.856Z,12.64
2022-11-15T08:42:30.667Z,12.72
2022-11-15T08:43:30.995Z,12.79
2022-11-15T08:44:30.587Z,12.80
2022-11-15T08:45:30.553Z,12.85
2022-11-15T08:46:30.525Z,12.80
2022-11-15T08:47:30.495Z,12.91
2022-11-15T08:48:30.829Z,12.87
2022-11-15T08:49:30.412Z,12.87
2022-11-15T08:50:30.382Z,12.94
2022-11-15T08:51:30.365Z,12.95
2022-11-15T08:52:30.319Z,12.94
2022-11-15T08:53:30.273Z,12.97
2022-11-15T08:54:30.243Z,12.98
2022-11-15T08:55:30.222Z,12.91
2022-11-15T08:56:30.165Z,12.97
2022-11-15T08:57:30.129Z,13.00
2022-11-15T08:58:30.256Z,13.12
2022-11-15T08:59:30.065Z,13.01
2022-11-15T09:00:30.041Z,13.00
2022-11-15T09:01:30.104Z,13.03
2022-11-15T09:02:29.959Z,13.11
2022-11-15T09:03:29.925Z,13.18
2022-11-15T09:04:29.884Z,13.22
2022-11-15T09:05:29.850Z,13.25
2022-11-15T09:06:29.817Z,13.28
2022-11-15T09:07:29.836Z,13.27
2022-11-15T09:08:47.113Z,13.31
2022-11-15T09:09:29.715Z,13.44
2022-11-15T09:10:29.673Z,13.41
2022-11-15T09:11:29.644Z,13.42
2022-11-15T09:12:29.605Z,13.53
2022-11-15T09:13:29.574Z,13.52
2022-11-15T09:14:29.550Z,13.53
2022-11-15T09:15:29.519Z,13.49
2022-11-15T09:16:29.471Z,13.57
2022-11-15T09:17:29.448Z,13.63
2022-11-15T09:18:29.730Z,13.59
2022-11-15T09:19:29.361Z,13.62
2022-11-15T09:20:29.329Z,13.67
2022-11-15T09:21:29.295Z,13.68
2022-11-15T09:22:29.258Z,13.70
2022-11-15T09:23:29.230Z,13.67
2022-11-15T09:24:29.209Z,13.77
2022-11-15T09:25:29.327Z,13.74
2022-11-15T09:26:29.127Z,13.81
2022-11-15T09:27:29.203Z,13.79
2022-11-15T09:28:29.065Z,13.86
2022-11-15T09:29:29.026Z,13.90
2022-11-15T09:30:28.979Z,13.89
2022-11-15T09:31:28.960Z,13.89
2022-11-15T09:32:28.909Z,14.00
2022-11-15T09:33:29.184Z,14.05
2022-11-15T09:34:28.883Z,14.07
2022-11-15T09:35:28.803Z,14.07
2022-11-15T09:36:29.011Z,14.04
2022-11-15T09:37:28.734Z,14.10
2022-11-15T09:38:29.111Z,14.12
2022-11-15T09:39:28.670Z,14.12
2022-11-15T09:40:28.637Z,14.12
2022-11-15T09:41:28.599Z,14.18
2022-11-15T09:42:28.570Z,14.18
2022-11-15T09:43:28.533Z,14.25
2022-11-15T09:44:28.493Z,14.26
2022-11-15T09:45:28.463Z,14.29
2022-11-15T09:46:28.423Z,14.20
2022-11-15T09:47:28.396Z,14.28
2022-11-15T09:48:28.370Z,14.28
2022-11-15T09:49:28.318Z,14.40
2022-11-15T09:50:28.289Z,14.36
2022-11-15T09:51:28.247Z,14.37
2022-11-15T09:52:28.220Z,14.41
2022-11-15T09:54:01.154Z,14.45
2022-11-15T09:54:52.284Z,14.48
2022-11-15T09:55:28.113Z,14.55
2022-11-15T09:56:28.083Z,14.53
2022-11-15T09:57:28.048Z,14.68
2022-11-15T09:58:28.006Z,14.63
2022-11-15T09:59:27.997Z,14.60
2022-11-15T10:01:27.942Z,14.73
2022-11-15T10:02:27.868Z,14.86
2022-11-15T10:03:27.835Z,14.82
2022-11-15T10:04:27.802Z,14.94
2022-11-15T10:05:27.764Z,14.96
2022-11-15T10:06:27.746Z,15.07
2022-11-15T10:07:27.771Z,15.10
2022-11-15T10:08:27.668Z,15.10
2022-11-15T10:09:27.631Z,15.10
2022-11-15T10:10:27.598Z,15.10
2022-11-15T10:11:37.173Z,15.19
2022-11-15T10:12:27.529Z,15.15
2022-11-15T10:13:27.487Z,15.15
2022-11-15T10:14:27.459Z,15.06
2022-11-15T10:15:27.437Z,15.24
2022-11-15T10:16:27.412Z,15.27
2022-11-15T10:17:27.353Z,15.28
2022-11-15T10:18:27.322Z,15.43
2022-11-15T10:19:27.285Z,15.54
2022-11-15T10:20:27.253Z,15.55
2022-11-15T10:21:27.220Z,15.61
2022-11-15T10:22:27.182Z,15.64
2022-11-15T10:23:27.158Z,15.70
2022-11-15T10:24:27.125Z,15.72
2022-11-15T10:25:27.081Z,15.73
2022-11-15T10:26:27.057Z,15.70
2022-11-15T10:27:27.018Z,15.82
2022-11-15T10:28:26.983Z,15.80
2022-11-15T10:29:27.433Z,15.82
2022-11-15T10:30:26.917Z,15.84
2022-11-15T10:31:26.878Z,15.84
2022-11-15T10:32:26.856Z,15.94
2022-11-15T10:33:26.822Z,15.91
2022-11-15T10:34:26.785Z,16.00
2022-11-15T10:35:26.743Z,16.20
2022-11-15T10:36:26.728Z,16.04
2022-11-15T10:37:26.681Z,15.98
2022-11-15T10:38:26.641Z,15.94
2022-11-15T10:39:26.618Z,15.97
2022-11-15T10:40:26.586Z,16.02
2022-11-15T10:41:26.541Z,16.05
2022-11-15T10:42:26.511Z,16.04
2022-11-15T10:43:26.474Z,16.15
2022-11-15T10:44:26.443Z,16.17
2022-11-15T10:45:26.419Z,16.12
2022-11-15T10:46:46.096Z,16.15
2022-11-15T10:47:26.389Z,16.32
2022-11-15T10:48:26.304Z,16.16
2022-11-15T10:49:26.270Z,16.12
2022-11-15T10:50:26.241Z,16.12
2022-11-15T10:51:26.205Z,16.28
2022-11-15T10:52:26.173Z,16.41
2022-11-15T10:53:26.144Z,16.43
2022-11-15T10:54:26.105Z,16.54
2022-11-15T10:55:26.082Z,16.68
2022-11-15T10:56:26.046Z,16.74
2022-11-15T10:57:26.007Z,16.71
2022-11-15T10:58:25.972Z,16.79
2022-11-15T10:59:25.939Z,16.91
2022-11-15T11:00:25.905Z,16.91
2022-11-15T11:01:25.949Z,16.97
2022-11-15T11:02:25.841Z,16.87
2022-11-15T11:03:25.808Z,17.04
2022-11-15T11:04:25.775Z,17.20
2022-11-15T11:05:25.744Z,17.16
2022-11-15T11:06:25.715Z,17.22
2022-11-15T11:07:25.716Z,17.30
2022-11-15T11:08:25.695Z,17.44
2022-11-15T11:09:25.611Z,17.59
2022-11-15T11:11:25.546Z,17.45
2022-11-15T11:12:25.510Z,17.49
2022-11-15T11:13:25.482Z,17.67
2022-11-15T11:14:25.444Z,17.72
2022-11-15T11:15:25.414Z,17.80
2022-11-15T11:16:25.377Z,17.78
2022-11-15T11:17:25.347Z,17.79
2022-11-15T11:18:25.322Z,17.82
2022-11-15T11:19:25.293Z,17.80
2022-11-15T11:20:25.270Z,17.95
2022-11-15T11:21:31.042Z,17.86
2022-11-15T11:22:25.194Z,17.83
2022-11-15T11:23:25.159Z,17.86
2022-11-15T11:24:25.185Z,17.82
2022-11-15T11:25:25.088Z,17.76
2022-11-15T11:26:25.058Z,17.72
2022-11-15T11:27:25.025Z,17.60
2022-11-15T11:28:24.992Z,17.78
2022-11-15T11:29:24.958Z,17.72
2022-11-15T11:30:24.926Z,17.60
2022-11-15T11:31:24.891Z,17.64
2022-11-15T11:32:24.876Z,17.65
2022-11-15T11:33:24.831Z,17.76
2022-11-15T11:34:24.800Z,17.63
2022-11-15T11:35:24.770Z,17.60
2022-11-15T11:36:24.734Z,17.82
2022-11-15T11:37:24.699Z,17.79
2022-11-15T11:38:24.668Z,17.86
2022-11-15T11:39:24.638Z,17.95
2022-11-15T11:40:24.616Z,17.97
2022-11-15T11:41:24.579Z,18.01
2022-11-15T11:42:24.537Z,17.90
2022-11-15T11:43:24.499Z,17.98
2022-11-15T11:44:24.472Z,17.98
2022-11-15T11:45:24.436Z,17.97
2022-11-15T11:46:24.412Z,18.00
2022-11-15T11:47:24.375Z,17.95
2022-11-15T11:48:24.340Z,17.97
2022-11-15T11:49:24.322Z,17.94
2022-11-15T11:50:24.321Z,17.98
2022-11-15T11:51:24.302Z,17.98
2022-11-15T11:52:24.228Z,18.01
2022-11-15T11:53:24.191Z,18.00
2022-11-15T11:54:24.149Z,18.11
2022-11-15T11:55:24.120Z,18.05
2022-11-15T11:56:24.082Z,18.07
2022-11-15T11:57:24.062Z,18.15
2022-11-15T11:58:24.023Z,18.35
2022-11-15T11:59:23.989Z,18.37
2022-11-15T12:00:23.959Z,18.43
2022-11-15T12:01:23.937Z,18.43
2022-11-15T12:02:23.982Z,18.38
2022-11-15T12:03:23.894Z,18.38
2022-11-15T12:04:23.834Z,18.40
2022-11-15T12:05:23.814Z,18.28
2022-11-15T12:06:23.766Z,18.34
2022-11-15T12:07:23.818Z,18.26
2022-11-15T12:08:23.702Z,18.15
2022-11-15T12:09:23.670Z,18.19
2022-11-15T12:10:23.671Z,18.11
2022-11-15T12:11:23.621Z,18.13
2022-11-15T12:12:23.571Z,18.10
2022-11-15T12:13:23.543Z,18.08
2022-11-15T12:14:23.511Z,18.01
2022-11-15T12:15:23.487Z,18.05
2022-11-15T12:16:23.448Z,18.07
2022-11-15T12:17:23.414Z,18.05
2022-11-15T12:18:23.378Z,17.97
2022-11-15T12:19:23.348Z,17.98
2022-11-15T12:20:23.323Z,18.01
2022-11-15T12:21:28.312Z,17.97
2022-11-15T12:22:23.257Z,18.01
2022-11-15T12:23:23.238Z,17.98
2022-11-15T12:24:23.190Z,17.97
2022-11-15T12:25:23.159Z,17.97
2022-11-15T12:26:23.124Z,18.01
2022-11-15T12:27:26.515Z,17.94
2022-11-15T12:28:23.065Z,18.00
2022-11-15T12:29:23.057Z,18.00
2022-11-15T12:30:23.006Z,17.97
2022-11-15T12:31:22.974Z,17.98
2022-11-15T12:32:22.934Z,17.97
2022-11-15T12:33:22.908Z,17.92
2022-11-15T12:34:22.877Z,17.85
2022-11-15T12:35:22.842Z,17.80
2022-11-15T12:36:22.812Z,17.82
2022-11-15T12:37:22.783Z,17.67
2022-11-15T12:38:22.743Z,17.60
2022-11-15T12:39:22.717Z,17.71
2022-11-15T12:40:22.687Z,17.64
2022-11-15T12:41:22.646Z,17.68
2022-11-15T12:42:22.620Z,17.71
2022-11-15T12:43:22.586Z,17.78
2022-11-15T12:44:22.551Z,17.72
2022-11-15T12:45:22.522Z,17.83
2022-11-15T12:46:22.496Z,17.78
2022-11-15T12:47:23.341Z,17.79
2022-11-15T12:48:22.422Z,17.79
2022-11-15T12:49:22.395Z,17.82
2022-11-15T12:50:22.362Z,17.80
2022-11-15T12:51:22.328Z,17.80
2022-11-15T12:52:22.305Z,17.83
2022-11-15T12:53:22.270Z,17.82
2022-11-15T12:54:22.231Z,17.83
2022-11-15T12:55:22.289Z,17.89
2022-11-15T12:56:22.166Z,17.89
2022-11-15T12:57:22.136Z,17.86
2022-11-15T12:58:22.106Z,17.86
2022-11-15T12:59:22.075Z,17.78
2022-11-15T13:00:25.314Z,17.90
2022-11-15T13:01:22.062Z,17.70
2022-11-15T13:02:21.983Z,17.68
2022-11-15T13:03:21.943Z,17.67
2022-11-15T13:04:21.915Z,17.67
2022-11-15T13:05:21.883Z,17.64
2022-11-15T13:06:21.847Z,17.65
2022-11-15T13:07:21.872Z,17.59
2022-11-15T13:08:21.790Z,17.63
2022-11-15T13:09:21.751Z,17.57
2022-11-15T13:10:27.554Z,17.57
2022-11-15T13:11:21.692Z,17.54
2022-11-15T13:12:21.654Z,17.46
2022-11-15T13:13:21.623Z,17.51
2022-11-15T13:14:21.598Z,17.42
2022-11-15T13:15:21.561Z,17.36
2022-11-15T13:16:21.525Z,17.34
2022-11-15T13:17:21.495Z,17.36
2022-11-15T13:18:21.466Z,17.29
2022-11-15T13:19:21.428Z,17.39
2022-11-15T13:20:21.418Z,17.38
2022-11-15T13:21:21.375Z,17.33
2022-11-15T13:22:21.330Z,17.24
2022-11-15T13:23:21.302Z,17.20
2022-11-15T13:24:21.270Z,17.19
2022-11-15T13:25:21.239Z,17.20
2022-11-15T13:26:21.202Z,17.22
2022-11-15T13:27:21.191Z,17.16
2022-11-15T13:28:21.143Z,17.05
2022-11-15T13:29:21.107Z,16.90
2022-11-15T13:30:21.074Z,16.91
2022-11-15T13:31:21.045Z,16.90
2022-11-15T13:32:21.008Z,16.81
2022-11-15T13:33:20.984Z,16.84
2022-11-15T13:34:49.436Z,16.91
2022-11-15T13:35:20.918Z,16.93
2022-11-15T13:36:20.876Z,16.91
2022-11-15T13:37:20.845Z,16.96
2022-11-15T13:38:20.812Z,16.91
2022-11-15T13:39:20.781Z,16.90
2022-11-15T13:40:20.743Z,16.96
2022-11-15T13:41:20.724Z,16.89
2022-11-15T13:42:20.781Z,16.96
2022-11-15T13:43:20.655Z,16.93
2022-11-15T13:44:20.629Z,16.91
2022-11-15T13:45:20.579Z,16.89
2022-11-15T13:46:20.553Z,16.91
2022-11-15T13:47:20.533Z,16.89
2022-11-15T13:48:20.488Z,16.75
2022-11-15T13:49:20.455Z,16.90
2022-11-15T13:50:20.428Z,16.89
2022-11-15T13:51:20.422Z,16.87
2022-11-15T13:52:20.352Z,16.87
2022-11-15T13:53:20.324Z,16.86
2022-11-15T13:54:20.303Z,16.78
2022-11-15T13:55:20.256Z,16.96
2022-11-15T13:56:20.224Z,16.89
2022-11-15T13:57:20.194Z,16.90
2022-11-15T13:58:24.119Z,16.87
2022-11-15T13:59:20.126Z,16.78
2022-11-15T14:00:20.142Z,16.84
2022-11-15T14:01:20.085Z,16.69
2022-11-15T14:02:20.035Z,16.71
2022-11-15T14:03:20.013Z,16.68
2022-11-15T14:04:19.963Z,16.72
2022-11-15T14:05:19.935Z,16.74
2022-11-15T14:06:19.899Z,16.74
2022-11-15T14:07:19.918Z,16.74
2022-11-15T14:08:19.834Z,16.74
2022-11-15T14:09:19.837Z,16.69
2022-11-15T14:10:19.765Z,16.64
2022-11-15T14:11:19.736Z,16.65
2022-11-15T14:12:19.717Z,16.65
2022-11-15T14:13:19.677Z,16.54
2022-11-15T14:14:19.640Z,16.57
2022-11-15T14:15:19.609Z,16.57
2022-11-15T14:16:19.569Z,16.53
2022-11-15T14:17:19.537Z,16.54
2022-11-15T14:18:19.503Z,16.56
2022-11-15T14:19:19.472Z,16.56
2022-11-15T14:20:19.440Z,16.47
2022-11-15T14:21:19.413Z,16.57
2022-11-15T14:22:19.370Z,16.53
2022-11-15T14:23:19.367Z,16.53
2022-11-15T14:24:19.306Z,16.54
2022-11-15T14:25:19.272Z,16.49
2022-11-15T14:26:19.246Z,16.50
2022-11-15T14:27:19.222Z,16.49
2022-11-15T14:28:19.179Z,16.54
2022-11-15T14:29:19.144Z,16.56
2022-11-15T14:30:19.156Z,16.58
2022-11-15T14:31:19.092Z,16.60
2022-11-15T14:32:19.041Z,16.51
2022-11-15T14:33:19.009Z,16.47
2022-11-15T14:34:18.977Z,16.49
2022-11-15T14:35:18.944Z,16.56
2022-11-15T14:36:18.919Z,16.51
2022-11-15T14:37:18.878Z,16.43
2022-11-15T14:38:18.843Z,16.49
2022-11-15T14:39:18.824Z,16.49
2022-11-15T14:40:18.803Z,16.43
2022-11-15T14:41:18.799Z,16.38
2022-11-15T14:42:18.724Z,16.39
2022-11-15T14:43:18.676Z,16.38
2022-11-15T14:44:18.650Z,16.41
2022-11-15T14:45:18.615Z,16.46
2022-11-15T14:46:18.580Z,16.46
2022-11-15T14:47:18.550Z,16.35
2022-11-15T14:48:18.529Z,16.35
2022-11-15T14:49:18.492Z,16.38
2022-11-15T14:50:18.445Z,16.31
2022-11-15T14:51:18.417Z,16.28
2022-11-15T14:52:18.381Z,16.26
2022-11-15T14:53:18.353Z,16.32
2022-11-15T14:54:18.316Z,16.29
2022-11-15T14:55:18.300Z,16.28
2022-11-15T14:56:18.261Z,16.26
2022-11-15T14:57:18.211Z,16.32
2022-11-15T14:58:18.221Z,16.29
2022-11-15T14:59:18.151Z,16.23
2022-11-15T15:00:18.155Z,16.15
2022-11-15T15:01:18.087Z,16.13
2022-11-15T15:02:18.064Z,16.21
2022-11-15T15:03:18.029Z,16.17
2022-11-15T15:04:17.987Z,16.15
2022-11-15T15:05:17.949Z,16.17
2022-11-15T15:06:18.676Z,16.13
2022-11-15T15:07:18.000Z,16.15
2022-11-15T15:08:17.901Z,16.15
2022-11-15T15:09:17.820Z,16.17
2022-11-15T15:10:38.847Z,16.16
2022-11-15T15:11:17.754Z,16.21
2022-11-15T15:12:17.723Z,16.13
2022-11-15T15:13:17.708Z,16.20
2022-11-15T15:14:17.654Z,16.13
2022-11-15T15:15:17.621Z,16.10
2022-11-15T15:16:17.657Z,16.08
2022-11-15T15:17:17.558Z,16.09
2022-11-15T15:18:17.547Z,16.17
2022-11-15T15:19:17.493Z,16.10
2022-11-15T15:20:17.455Z,16.05
2022-11-15T15:21:17.504Z,16.00
2022-11-15T15:22:17.391Z,16.09
2022-11-15T15:23:17.358Z,16.08
2022-11-15T15:24:17.322Z,16.08
2022-11-15T15:25:17.288Z,16.01
2022-11-15T15:26:17.265Z,16.04
2022-11-15T15:27:17.240Z,16.02
2022-11-15T15:28:17.200Z,16.00
2022-11-15T15:29:17.158Z,15.98
2022-11-15T15:30:17.178Z,16.01
2022-11-15T15:31:17.247Z,16.01
2022-11-15T15:32:17.055Z,16.08
2022-11-15T15:33:17.037Z,16.04
2022-11-15T15:34:17.163Z,15.98
2022-11-15T15:35:16.968Z,16.02
2022-11-15T15:36:16.927Z,15.91
2022-11-15T15:37:16.911Z,15.94
2022-11-15T15:38:16.888Z,16.02
2022-11-15T15:39:16.824Z,16.00
2022-11-15T15:40:16.790Z,15.94
2022-11-15T15:41:16.771Z,15.91
2022-11-15T15:42:16.726Z,15.98
2022-11-15T15:43:16.691Z,15.92
2022-11-15T15:44:16.703Z,15.90
2022-11-15T15:45:16.629Z,15.95
2022-11-15T15:46:16.601Z,15.90
2022-11-15T15:47:16.558Z,15.83
2022-11-15T15:48:16.539Z,15.88
2022-11-15T15:49:16.493Z,15.94
2022-11-15T15:50:16.467Z,15.95
2022-11-15T15:51:20.369Z,15.84
2022-11-15T15:52:16.394Z,15.76
2022-11-15T15:53:16.371Z,15.82
2022-11-15T15:54:16.347Z,15.79